Time;durP1;ratioP1;P1;durP2;ratioP2;P2;SDS_P1;SDS_P2;PMS_P1;PMS_P2;Temp;Humidity;BMP_temperature;BMP_pressure;BME280_temperature;BME280_humidity;BME280_pressure;Samples;Min_cycle;Max_cycle;Signal;HPM_P1;HPM_P2
2022/01/01 00:02:11;;;;;;;7.10;5.13;;;;;;;12.14;89.07;100960.84;5014006;28;20034;-80
2022/01/01 00:04:36;;;;;;;8.07;4.45;;;;;;;12.06;90.07;100964.41;5012330;28;20538;-79
2022/01/01 00:07:01;;;;;;;7.43;5.10;;;;;;;12.07;89.87;100954.69;5014105;28;20563;-80
2022/01/01 00:09:27;;;;;;;7.07;4.15;;;;;;;12.11;89.90;100961.72;5012627;28;20500;-80
2022/01/01 00:11:52;;;;;;;9.35;5.95;;;;;;;12.11;89.41;100969.66;5021093;28;20073;-79
2022/01/01 00:14:18;;;;;;;10.15;5.78;;;;;;;12.14;89.38;100974.94;5012664;28;20038;-80
2022/01/01 00:16:43;;;;;;;6.90;4.70;;;;;;;12.21;89.46;100971.38;5013746;28;20492;-80
2022/01/01 00:19:08;;;;;;;9.00;4.72;;;;;;;12.24;89.48;100971.34;5013716;28;20073;-80
2022/01/01 00:21:34;;;;;;;10.48;7.15;;;;;;;12.37;88.79;100966.00;5020505;28;20041;-79
2022/01/01 00:23:59;;;;;;;13.95;8.93;;;;;;;12.41;88.21;100975.66;5013769;28;20045;-80
2022/01/01 00:26:24;;;;;;;12.05;7.60;;;;;;;12.42;88.12;100958.91;5013554;28;20053;-80
2022/01/01 00:28:50;;;;;;;10.63;7.18;;;;;;;12.44;88.25;100968.59;5013569;28;20046;-80
2022/01/01 00:31:16;;;;;;;13.40;7.97;;;;;;;12.42;88.47;100966.84;5013567;28;20046;-80
2022/01/01 00:33:41;;;;;;;11.52;8.07;;;;;;;12.42;88.45;100964.19;5013527;28;20030;-80
2022/01/01 00:36:06;;;;;;;11.43;7.82;;;;;;;12.42;88.48;100970.38;5013380;28;20396;-80
2022/01/01 00:38:32;;;;;;;13.38;8.20;;;;;;;12.46;88.08;100976.50;5017677;28;20039;-80
2022/01/01 00:40:57;;;;;;;12.25;8.30;;;;;;;12.44;88.29;100972.97;5013503;28;20115;-80
2022/01/01 00:43:24;;;;;;;12.02;8.98;;;;;;;12.38;88.75;100973.91;5012305;28;20419;-80
2022/01/01 00:45:49;;;;;;;12.30;8.30;;;;;;;12.31;89.29;100976.59;5012863;28;20032;-80
2022/01/01 00:48:15;;;;;;;15.75;8.68;;;;;;;12.32;89.22;100987.19;5013485;28;20046;-80
2022/01/01 00:50:40;;;;;;;13.68;8.88;;;;;;;12.30;89.54;100993.38;5012211;28;20061;-80
2022/01/01 00:53:06;;;;;;;14.98;9.98;;;;;;;12.30;89.37;100990.72;5013032;28;20068;-79
2022/01/01 00:55:31;;;;;;;13.40;9.98;;;;;;;12.24;89.99;100992.53;5013148;28;20034;-79
2022/01/01 00:57:56;;;;;;;12.80;9.63;;;;;;;12.24;90.27;100997.81;5013053;28;20049;-80
2022/01/01 01:00:22;;;;;;;15.38;10.60;;;;;;;12.14;91.35;101004.03;5012927;28;20068;-79
2022/01/01 01:02:47;;;;;;;18.73;12.77;;;;;;;12.08;92.07;101006.72;5013349;28;20046;-80
2022/01/01 01:05:12;;;;;;;18.75;12.30;;;;;;;12.02;92.50;101017.31;5012842;28;20045;-80
2022/01/01 01:07:38;;;;;;;19.20;13.10;;;;;;;11.99;93.02;101004.09;5011653;28;20050;-79
2022/01/01 01:10:05;;;;;;;22.70;14.00;;;;;;;11.98;93.39;101008.53;5012693;28;20078;-79
2022/01/01 01:12:44;;;;;;;20.50;15.05;;;;;;;11.96;93.95;101006.78;5013122;28;20073;-80
2022/01/01 01:15:17;;;;;;;21.02;14.95;;;;;;;11.97;92.99;101013.81;5012763;28;20026;-79
2022/01/01 01:17:44;;;;;;;20.17;14.98;;;;;;;11.92;93.63;101011.22;5012811;28;20038;-79
2022/01/01 01:20:10;;;;;;;22.38;14.88;;;;;;;11.96;93.45;101018.22;5012858;28;20049;-79
2022/01/01 01:22:35;;;;;;;23.90;15.35;;;;;;;11.91;93.13;101013.84;5015235;28;20496;-80
2022/01/01 01:25:01;;;;;;;23.35;15.48;;;;;;;11.92;93.21;101028.81;5017352;28;20118;-79
2022/01/01 01:27:28;;;;;;;20.25;14.70;;;;;;;11.94;92.60;101024.41;5014842;28;20488;-80
2022/01/01 01:29:54;;;;;;;21.83;15.70;;;;;;;12.01;92.14;101023.50;5012660;28;20034;-80
2022/01/01 01:32:19;;;;;;;23.75;16.05;;;;;;;12.01;91.09;101031.44;5013127;28;20049;-80
2022/01/01 01:34:44;;;;;;;22.58;15.65;;;;;;;12.08;90.68;101035.84;5011140;28;20068;-80
2022/01/01 01:37:10;;;;;;;18.73;14.30;;;;;;;12.19;90.54;101033.13;5012973;28;20030;-80
2022/01/01 01:39:35;;;;;;;18.70;14.43;;;;;;;12.24;89.18;101024.28;5013925;28;20076;-79
2022/01/01 01:42:00;;;;;;;17.77;14.30;;;;;;;12.33;88.62;101018.06;5012314;28;20034;-79
2022/01/01 01:44:32;;;;;;;19.58;13.73;;;;;;;12.33;87.54;101023.34;5012508;28;20098;-79
2022/01/01 01:47:01;;;;;;;18.10;13.52;;;;;;;12.40;87.24;101021.56;5016622;28;20038;-80
2022/01/01 01:49:27;;;;;;;20.60;13.20;;;;;;;12.37;86.99;101024.22;5012765;28;20048;-79
2022/01/01 01:51:53;;;;;;;19.60;13.68;;;;;;;12.42;86.95;101031.25;5012798;28;20041;-79
2022/01/01 01:54:19;;;;;;;21.52;13.77;;;;;;;12.50;86.50;101036.50;5012234;28;20042;-83
2022/01/01 01:56:45;;;;;;;16.83;11.23;;;;;;;12.56;85.52;101051.47;5012107;28;20041;-80
2022/01/01 01:59:11;;;;;;;16.40;10.82;;;;;;;12.61;85.19;101055.84;5015086;28;20075;-79
2022/01/01 02:01:36;;;;;;;14.43;10.13;;;;;;;12.59;85.07;101062.91;5016018;28;20442;-79
2022/01/01 02:04:02;;;;;;;14.10;10.40;;;;;;;12.67;84.86;101042.53;5015982;28;20041;-80
2022/01/01 02:06:27;;;;;;;14.88;9.48;;;;;;;12.71;84.47;101056.66;5015836;28;20033;-79
2022/01/01 02:08:53;;;;;;;14.88;11.00;;;;;;;12.68;84.70;101046.97;5015641;28;20140;-79
2022/01/01 02:11:23;;;;;;;14.77;9.50;;;;;;;12.59;85.59;101057.59;5016125;28;20042;-79
2022/01/01 02:18:46;;;;;;;12.75;8.43;;;;;;;12.62;85.36;101054.06;5015895;28;20045;-80
2022/01/01 02:21:12;;;;;;;11.65;7.82;;;;;;;12.72;84.87;101054.00;5015820;28;20026;-80
2022/01/01 02:23:42;;;;;;;13.50;8.18;;;;;;;12.74;84.24;101061.06;5015812;28;20033;-79
2022/01/01 02:26:11;;;;;;;12.05;7.97;;;;;;;12.72;83.90;101064.59;5015490;28;20409;-80
2022/01/01 02:28:39;;;;;;;9.95;7.30;;;;;;;12.77;83.77;101061.03;5022350;28;20499;-80
2022/01/01 02:31:04;;;;;;;9.73;6.55;;;;;;;12.83;83.42;101064.50;5015705;28;20038;-80
2022/01/01 02:33:31;;;;;;;11.23;7.03;;;;;;;12.80;83.34;101071.59;5030747;28;20041;-80
2022/01/01 02:35:57;;;;;;;8.00;5.75;;;;;;;12.77;83.56;101082.22;5030455;28;20120;-80
2022/01/01 02:38:22;;;;;;;8.68;5.95;;;;;;;12.75;84.02;101078.72;5015381;28;20057;-80
2022/01/01 02:40:48;;;;;;;8.48;5.78;;;;;;;12.62;84.03;101083.19;5014169;28;20037;-80
2022/01/01 02:43:14;;;;;;;9.23;6.00;;;;;;;12.67;83.52;101090.22;5022229;28;20132;-80
2022/01/01 02:45:40;;;;;;;9.60;5.32;;;;;;;12.75;83.24;101084.00;5006409;28;20042;-80
2022/01/01 02:48:05;;;;;;;8.85;5.63;;;;;;;12.78;82.92;101084.84;5015111;28;20041;-80
2022/01/01 02:50:30;;;;;;;7.82;5.50;;;;;;;12.84;81.97;101090.13;5013782;28;20096;-80
2022/01/01 02:52:56;;;;;;;10.40;5.55;;;;;;;12.82;82.60;101105.16;5015045;28;20044;-80
2022/01/01 02:55:21;;;;;;;8.02;4.70;;;;;;;12.89;81.75;101104.22;5015058;28;20041;-80
2022/01/01 02:57:46;;;;;;;7.53;4.53;;;;;;;12.84;82.34;101100.72;5014948;28;20468;-80
2022/01/01 03:00:12;;;;;;;7.30;4.85;;;;;;;12.86;82.41;101095.41;5014941;28;20492;-80
2022/01/01 03:02:39;;;;;;;9.18;5.05;;;;;;;12.87;82.25;101094.53;5015083;28;20497;-80
2022/01/01 03:05:06;;;;;;;9.73;5.57;;;;;;;12.91;81.96;101096.25;5014683;28;20448;-80
2022/01/01 03:07:31;;;;;;;8.88;4.97;;;;;;;12.92;82.02;101100.69;5014812;28;20044;-80
2022/01/01 03:09:56;;;;;;;8.20;4.80;;;;;;;12.95;81.68;101092.69;5014457;28;20125;-80
2022/01/01 03:12:22;;;;;;;7.45;4.78;;;;;;;12.92;81.79;101095.38;5014439;28;20041;-80
2022/01/01 03:14:47;;;;;;;6.78;4.45;;;;;;;12.97;81.12;101100.63;5014718;28;20109;-80
2022/01/01 03:17:12;;;;;;;8.68;4.30;;;;;;;12.99;81.06;101088.25;5013568;28;20072;-80
2022/01/01 03:19:38;;;;;;;7.78;5.20;;;;;;;12.97;81.20;101090.94;5014806;28;20042;-80
2022/01/01 03:22:04;;;;;;;8.40;4.03;;;;;;;13.03;80.77;101096.19;5013616;28;20439;-81
2022/01/01 03:24:29;;;;;;;5.85;3.95;;;;;;;13.03;79.83;101090.88;5014388;28;20113;-80
2022/01/01 03:26:55;;;;;;;8.63;4.50;;;;;;;13.03;79.76;101101.47;5014655;28;20542;-80
2022/01/01 03:29:20;;;;;;;6.57;4.10;;;;;;;13.10;79.11;101099.66;5014536;28;20069;-80
2022/01/01 03:31:46;;;;;;;7.63;4.45;;;;;;;13.12;79.34;101108.47;5014420;28;20505;-80
2022/01/01 03:34:11;;;;;;;7.72;4.35;;;;;;;13.18;79.13;101095.19;5014532;28;20053;-80
2022/01/01 03:36:36;;;;;;;7.20;4.68;;;;;;;13.13;79.33;101097.88;5014449;28;20034;-82
2022/01/01 03:39:03;;;;;;;8.00;4.38;;;;;;;13.15;78.85;101096.09;5014585;28;20392;-79
2022/01/01 03:41:28;;;;;;;6.97;3.95;;;;;;;13.13;78.73;101103.16;5010808;28;20041;-80
2022/01/01 03:43:54;;;;;;;6.35;4.43;;;;;;;13.14;78.97;101112.88;5014512;28;20054;-80
2022/01/01 03:46:19;;;;;;;6.70;4.00;;;;;;;13.14;78.30;101110.22;5014302;28;20049;-80
2022/01/01 03:48:44;;;;;;;6.95;4.05;;;;;;;13.11;79.08;101115.53;5014349;28;20570;-80
2022/01/01 03:51:10;;;;;;;6.00;3.42;;;;;;;13.06;79.22;101120.00;5012955;28;20507;-81
2022/01/01 03:53:35;;;;;;;5.68;3.90;;;;;;;13.10;78.40;101119.09;5014662;28;20496;-80
2022/01/01 03:56:01;;;;;;;7.57;4.03;;;;;;;13.13;78.00;101113.78;5012479;28;20049;-80
2022/01/01 03:58:26;;;;;;;5.50;3.47;;;;;;;13.09;78.85;101113.78;5012454;28;20034;-80
2022/01/01 04:00:52;;;;;;;7.63;4.10;;;;;;;13.11;78.50;101119.97;5014302;28;20038;-80
2022/01/01 04:03:17;;;;;;;4.63;3.08;;;;;;;13.07;78.38;101123.53;5021647;28;20053;-80
2022/01/01 04:05:43;;;;;;;7.03;4.15;;;;;;;13.11;78.90;101122.63;5014280;28;20037;-80
2022/01/01 04:08:09;;;;;;;7.43;3.97;;;;;;;13.10;78.60;101124.41;5014374;28;20059;-80
2022/01/01 04:10:35;;;;;;;11.10;4.35;;;;;;;13.07;78.51;101111.19;5013906;28;20038;-80
2022/01/01 04:13:03;;;;;;;5.78;3.65;;;;;;;13.05;78.35;101109.44;5012359;28;20104;-80
2022/01/01 04:15:29;;;;;;;6.57;4.05;;;;;;;12.90;79.14;101111.28;5012199;28;20069;-81
2022/01/01 04:17:58;;;;;;;8.05;4.20;;;;;;;12.89;79.20;101116.56;5013907;28;20409;-79
2022/01/01 04:20:24;;;;;;;8.57;4.50;;;;;;;12.84;79.13;101131.63;5013228;28;20511;-80
2022/01/01 04:22:54;;;;;;;5.47;3.88;;;;;;;12.77;79.51;101124.59;5013274;28;20034;-80
2022/01/01 04:25:21;;;;;;;7.07;4.00;;;;;;;12.72;79.44;101130.78;5013513;28;20232;-79
2022/01/01 04:27:47;;;;;;;8.43;4.00;;;;;;;12.72;79.58;101124.63;5013927;28;20075;-80
2022/01/01 04:30:12;;;;;;;8.73;4.32;;;;;;;12.71;79.64;101128.19;5013907;28;20087;-80
2022/01/01 04:32:38;;;;;;;7.53;4.15;;;;;;;12.61;79.81;101126.47;5014235;28;20502;-80
2022/01/01 04:35:04;;;;;;;8.38;3.92;;;;;;;12.57;79.99;101130.88;5012731;28;20059;-79
2022/01/01 04:37:30;;;;;;;6.53;4.43;;;;;;;12.51;80.13;101133.56;5013617;28;20096;-80
2022/01/01 04:39:59;;;;;;;8.48;4.28;;;;;;;12.45;nan;101141.53;5013890;28;20041;-80
2022/01/01 04:42:25;;;;;;;5.85;4.10;;;;;;;12.53;80.59;101152.09;5012469;28;20030;-80
2022/01/01 04:44:50;;;;;;;6.38;4.32;;;;;;;12.53;80.51;101152.09;5012454;28;20091;-81
2022/01/01 04:47:16;;;;;;;6.70;4.70;;;;;;;12.57;80.44;101144.09;5013317;28;20030;-80
2022/01/01 04:49:41;;;;;;;6.57;4.28;;;;;;;12.61;80.20;101155.59;5012156;28;20481;-80
2022/01/01 04:52:06;;;;;;;8.43;4.30;;;;;;;12.62;80.42;101158.22;5012260;28;20041;-80
2022/01/01 04:54:34;;;;;;;5.80;4.15;;;;;;;12.59;80.43;101158.22;5020773;28;20038;-80
2022/01/01 04:56:59;;;;;;;8.02;5.10;;;;;;;12.61;80.44;101172.34;5013465;28;20030;-80
2022/01/01 04:59:24;;;;;;;7.40;5.05;;;;;;;12.56;81.04;101163.53;5011873;28;20504;-80
2022/01/01 05:01:50;;;;;;;7.65;4.75;;;;;;;12.60;80.48;101161.75;5013126;28;20412;-80
2022/01/01 05:04:15;;;;;;;9.88;5.13;;;;;;;12.60;80.79;101164.41;5013214;28;20029;-80
2022/01/01 05:06:41;;;;;;;7.20;4.72;;;;;;;12.63;80.83;101159.13;5013055;28;20041;-80
2022/01/01 05:09:07;;;;;;;8.13;4.95;;;;;;;12.59;80.63;101168.81;5007628;28;20049;-80
2022/01/01 05:11:32;;;;;;;7.55;4.68;;;;;;;12.59;80.88;101168.81;5012940;28;20045;-79
2022/01/01 05:13:58;;;;;;;7.43;4.75;;;;;;;12.54;81.29;101177.69;5011506;28;20169;-80
2022/01/01 05:16:23;;;;;;;6.43;4.78;;;;;;;12.60;81.05;101167.03;5011424;28;20045;-80
2022/01/01 05:18:49;;;;;;;9.10;5.32;;;;;;;12.61;80.42;101175.00;5013273;28;20436;-80
2022/01/01 05:21:14;;;;;;;7.75;4.90;;;;;;;12.61;80.83;101175.00;5012818;28;20068;-80
2022/01/01 05:23:40;;;;;;;8.07;4.93;;;;;;;12.55;81.27;101172.38;5013093;28;20046;-80
2022/01/01 05:26:05;;;;;;;6.40;4.63;;;;;;;12.57;81.29;101173.25;5012807;28;20038;-79
2022/01/01 05:28:31;;;;;;;8.68;4.35;;;;;;;12.56;81.33;101171.50;5013051;28;20045;-80
2022/01/01 05:30:56;;;;;;;8.98;4.90;;;;;;;12.59;80.94;101168.81;5012994;28;20087;-80
2022/01/01 05:33:22;;;;;;;6.70;4.38;;;;;;;12.61;81.07;101164.41;5022115;28;20067;-80
2022/01/01 05:35:47;;;;;;;8.43;4.63;;;;;;;12.59;80.77;101178.53;5016275;28;20070;-80
2022/01/01 05:38:13;;;;;;;6.93;4.50;;;;;;;12.54;80.66;101175.03;5017097;28;20037;-80
2022/01/01 05:40:38;;;;;;;11.30;4.90;;;;;;;12.61;80.90;101177.66;5016808;28;20034;-80
2022/01/01 05:43:04;;;;;;;7.57;4.97;;;;;;;12.60;81.14;101181.19;5016493;28;20523;-80
2022/01/01 05:45:29;;;;;;;7.43;4.90;;;;;;;12.57;80.84;101186.47;5015231;28;20045;-80
2022/01/01 05:47:54;;;;;;;8.15;4.53;;;;;;;12.60;81.14;101185.59;5016421;28;20046;-80
2022/01/01 05:50:20;;;;;;;7.60;4.85;;;;;;;12.56;81.43;101183.84;5015358;28;20037;-80
2022/01/01 05:52:46;;;;;;;7.75;4.50;;;;;;;12.58;81.49;101188.25;5015225;28;20088;-79
2022/01/01 05:55:12;;;;;;;6.45;4.45;;;;;;;12.60;81.31;101185.59;5015013;28;20092;-80
2022/01/01 05:57:37;;;;;;;7.10;4.38;;;;;;;12.60;81.28;101180.28;5016515;28;20041;-80
2022/01/01 06:00:06;;;;;;;8.50;4.63;;;;;;;12.58;81.30;101190.91;5015440;28;20030;-80
2022/01/01 06:02:38;;;;;;;6.80;5.07;;;;;;;12.62;81.08;101187.34;5015955;28;20038;-80
2022/01/01 06:05:04;;;;;;;7.10;4.55;;;;;;;12.66;80.89;101186.47;5015151;28;20531;-80
2022/01/01 06:07:29;;;;;;;7.75;4.43;;;;;;;12.57;80.96;101191.78;5016031;28;20038;-80
2022/01/01 06:09:55;;;;;;;9.20;4.93;;;;;;;12.61;80.99;101193.53;5015709;28;20081;-80
2022/01/01 06:12:20;;;;;;;6.82;4.65;;;;;;;12.60;80.61;101206.75;5015842;28;20069;-80
2022/01/01 06:14:45;;;;;;;8.40;5.00;;;;;;;12.59;81.09;101210.31;5016053;28;20547;-80
2022/01/01 06:17:11;;;;;;;8.55;5.00;;;;;;;12.55;81.25;101217.41;5015890;28;20484;-80
2022/01/01 06:19:36;;;;;;;6.22;4.50;;;;;;;12.53;81.64;101216.53;5016134;28;20034;-80
2022/01/01 06:22:01;;;;;;;7.32;4.90;;;;;;;12.48;81.51;101219.16;5015457;28;20044;-80
2022/01/01 06:24:27;;;;;;;6.28;4.22;;;;;;;12.51;81.47;101228.88;5015342;28;20042;-80
2022/01/01 06:26:52;;;;;;;7.13;4.22;;;;;;;12.51;81.75;101223.56;5014569;28;20033;-80
2022/01/01 06:29:17;;;;;;;7.43;4.70;;;;;;;12.51;81.83;101223.56;5014477;28;20496;-79
2022/01/01 06:31:42;;;;;;;8.27;5.13;;;;;;;12.61;81.05;101225.31;5015354;28;20503;-80
2022/01/01 06:34:08;;;;;;;8.80;4.47;;;;;;;12.60;81.33;101222.66;5015847;28;20519;-80
2022/01/01 06:36:34;;;;;;;7.78;4.53;;;;;;;12.59;81.39;101227.06;5015281;28;20058;-80
2022/01/01 06:38:59;;;;;;;6.50;4.13;;;;;;;12.52;81.68;101235.03;5015429;28;20373;-80
2022/01/01 06:41:25;;;;;;;8.27;4.63;;;;;;;12.57;81.48;101235.91;5014161;28;20038;-80
2022/01/01 06:43:50;;;;;;;7.75;4.93;;;;;;;12.58;81.29;101248.28;5022064;28;20120;-80
2022/01/01 06:46:16;;;;;;;7.60;4.75;;;;;;;12.56;81.27;101240.34;5013783;28;20134;-80
2022/01/01 06:48:41;;;;;;;5.95;3.83;;;;;;;12.55;81.57;101241.22;5015364;28;20046;-80
2022/01/01 06:51:06;;;;;;;6.05;4.10;;;;;;;12.60;81.31;101246.50;5015391;28;20065;-80
2022/01/01 06:53:31;;;;;;;6.75;4.22;;;;;;;12.58;81.17;101257.09;5014365;28;20451;-80
2022/01/01 06:55:59;;;;;;;6.85;4.30;;;;;;;12.58;81.41;101250.94;5014966;28;20095;-80
2022/01/01 06:58:24;;;;;;;6.82;4.32;;;;;;;12.57;81.69;101252.66;5015281;28;20240;-80
2022/01/01 07:00:49;;;;;;;6.60;3.90;;;;;;;12.60;81.36;101259.72;5015181;28;20065;-80
2022/01/01 07:03:21;;;;;;;6.93;4.15;;;;;;;12.56;81.18;101261.50;5014052;28;20041;-80
2022/01/01 07:05:46;;;;;;;7.43;4.20;;;;;;;12.59;81.24;101263.28;5014888;28;20104;-80
2022/01/01 07:08:11;;;;;;;6.10;4.13;;;;;;;12.58;81.21;101270.34;5014650;28;20085;-80
2022/01/01 07:10:38;;;;;;;5.97;3.88;;;;;;;12.58;81.24;101280.94;5014731;28;20107;-80
2022/01/01 07:13:04;;;;;;;7.57;4.18;;;;;;;12.60;80.94;101276.53;5022409;28;20037;-80
2022/01/01 07:15:29;;;;;;;6.80;4.43;;;;;;;12.57;81.30;101275.63;5014706;28;20073;-79
2022/01/01 07:17:54;;;;;;;6.53;3.83;;;;;;;12.64;81.40;101282.69;5014702;28;20038;-80
2022/01/01 07:20:20;;;;;;;6.80;4.97;;;;;;;12.64;81.10;101272.97;5013344;28;20034;-80
2022/01/01 07:22:46;;;;;;;8.45;4.28;;;;;;;12.66;81.54;101278.28;5014932;28;20042;-80
2022/01/01 07:25:13;;;;;;;6.75;4.07;;;;;;;12.62;81.16;101277.38;5013473;28;20592;-80
2022/01/01 07:27:39;;;;;;;8.90;3.85;;;;;;;12.67;80.87;101282.66;5014426;28;20034;-80
2022/01/01 07:30:06;;;;;;;7.18;3.72;;;;;;;12.67;81.17;101277.38;5014521;28;20052;-80
2022/01/01 07:32:31;;;;;;;6.20;3.50;;;;;;;12.68;81.04;101282.69;5014449;28;20053;-80
2022/01/01 07:34:57;;;;;;;6.00;3.88;;;;;;;12.70;81.04;101280.00;5014824;28;20038;-80
2022/01/01 07:37:22;;;;;;;6.38;3.35;;;;;;;12.71;81.14;101282.66;5014472;28;20467;-80
2022/01/01 07:39:47;;;;;;;5.97;3.08;;;;;;;12.67;80.99;101278.25;5012549;28;20034;-80
2022/01/01 07:42:13;;;;;;;5.63;3.45;;;;;;;12.72;81.04;101280.88;5014401;28;20088;-80
2022/01/01 07:44:39;;;;;;;7.38;2.92;;;;;;;12.80;80.40;101278.22;5014482;28;20382;-80
2022/01/01 07:47:05;;;;;;;5.25;2.92;;;;;;;12.78;80.57;101285.28;5013297;28;20468;-80
2022/01/01 07:49:30;;;;;;;5.68;3.00;;;;;;;12.82;80.40;101295.00;5014243;28;20072;-80
2022/01/01 07:51:56;;;;;;;6.30;2.80;;;;;;;12.82;80.21;101300.28;5013000;28;20389;-79
2022/01/01 07:54:22;;;;;;;5.13;2.80;;;;;;;12.72;80.94;101294.13;5013834;28;20064;-82
2022/01/01 07:56:47;;;;;;;4.10;2.53;;;;;;;12.79;80.39;101302.97;5013531;28;20038;-80
2022/01/01 07:59:13;;;;;;;5.00;2.50;;;;;;;12.81;80.19;101299.41;5013923;28;20121;-79
2022/01/01 08:01:40;;;;;;;5.82;2.83;;;;;;;12.78;80.38;101304.69;5013753;28;20444;-80
2022/01/01 08:04:05;;;;;;;4.82;2.80;;;;;;;12.79;80.53;101302.97;5013854;28;20045;-80
2022/01/01 08:06:31;;;;;;;5.63;2.90;;;;;;;12.86;79.94;101305.59;5013869;28;20136;-80
2022/01/01 08:08:57;;;;;;;9.32;3.58;;;;;;;12.82;80.19;101295.00;5013760;28;20093;-80
2022/01/01 08:11:24;;;;;;;7.40;2.85;;;;;;;12.84;80.09;101303.81;5012314;28;20054;-80
2022/01/01 08:13:49;;;;;;;6.22;2.90;;;;;;;12.84;79.98;101312.66;5013669;28;20041;-80
2022/01/01 08:16:15;;;;;;;5.85;2.50;;;;;;;12.86;80.07;101312.63;5012060;28;20084;-79
2022/01/01 08:18:40;;;;;;;6.32;3.72;;;;;;;12.83;80.26;101315.28;5012774;28;20044;-80
2022/01/01 08:21:06;;;;;;;6.07;3.05;;;;;;;12.85;80.16;101321.47;5013464;28;20042;-80
2022/01/01 08:23:31;;;;;;;5.03;2.97;;;;;;;12.89;80.28;101325.84;5013741;28;20095;-80
2022/01/01 08:25:58;;;;;;;6.28;3.13;;;;;;;12.80;80.48;101326.78;5011714;28;20080;-79
2022/01/01 08:28:23;;;;;;;7.32;3.50;;;;;;;12.81;80.09;101311.75;5012527;28;20037;-79
2022/01/01 08:30:49;;;;;;;6.88;3.50;;;;;;;12.87;80.09;101317.06;5013329;28;20042;-79
2022/01/01 08:33:15;;;;;;;5.13;2.88;;;;;;;12.84;80.17;101317.06;5013730;28;20132;-79
2022/01/01 08:35:40;;;;;;;4.28;2.42;;;;;;;12.91;79.77;101308.19;5013451;28;20117;-80
2022/01/01 08:38:06;;;;;;;5.22;2.90;;;;;;;12.98;79.78;101309.06;5013433;28;20045;-80
2022/01/01 08:40:32;;;;;;;7.40;2.95;;;;;;;13.00;78.88;101318.78;5013037;28;20030;-79
2022/01/01 08:42:58;;;;;;;6.53;2.85;;;;;;;13.09;78.84;101320.50;5016307;28;20058;-80
2022/01/01 08:45:24;;;;;;;7.47;3.05;;;;;;;13.04;78.51;101317.84;5017187;28;20476;-80
2022/01/01 08:47:50;;;;;;;8.63;2.80;;;;;;;13.13;77.97;101316.97;5016678;28;20037;-80
2022/01/01 08:50:16;;;;;;;5.40;2.92;;;;;;;13.19;78.06;101313.41;5009280;28;20048;-80
2022/01/01 08:52:43;;;;;;;4.90;2.92;;;;;;;13.23;77.50;101333.69;5012623;28;20113;-80
2022/01/01 08:55:08;;;;;;;7.53;2.90;;;;;;;13.30;77.35;101322.22;5012613;28;20042;-80
2022/01/01 08:57:34;;;;;;;5.72;2.50;;;;;;;13.33;77.47;101338.09;5013219;28;20042;-80
2022/01/01 09:00:01;;;;;;;7.80;3.10;;;;;;;13.36;77.44;101332.78;5012209;28;20049;-80
2022/01/01 09:02:27;;;;;;;6.07;2.78;;;;;;;13.26;77.46;101339.00;5013120;28;20049;-80
2022/01/01 09:04:52;;;;;;;5.80;2.88;;;;;;;13.30;77.44;101328.38;5013342;28;20034;-80
2022/01/01 09:07:18;;;;;;;6.53;2.92;;;;;;;13.27;76.79;101325.75;5013464;28;20034;-80
2022/01/01 09:09:44;;;;;;;5.90;3.00;;;;;;;13.40;76.44;101341.63;5016813;28;20052;-80
2022/01/01 09:12:10;;;;;;;4.70;2.67;;;;;;;13.36;76.73;101338.97;5016880;28;20045;-80
2022/01/01 09:14:37;;;;;;;5.68;2.78;;;;;;;13.45;76.39;101343.34;5015873;28;20087;-80
2022/01/01 09:17:06;;;;;;;6.68;3.05;;;;;;;13.43;76.77;101347.78;5016734;28;20041;-80
2022/01/01 09:19:31;;;;;;;7.35;2.97;;;;;;;13.53;75.71;101373.34;5017030;28;20496;-80
2022/01/01 09:21:57;;;;;;;5.30;3.00;;;;;;;13.44;76.24;101362.81;5016839;28;20040;-80
2022/01/01 09:24:22;;;;;;;6.50;3.00;;;;;;;13.41;75.96;101377.84;5016531;28;20069;-80
2022/01/01 09:26:47;;;;;;;6.70;2.95;;;;;;;13.44;76.05;101368.13;5023562;28;20620;-79
2022/01/01 09:29:13;;;;;;;5.65;2.55;;;;;;;13.56;75.49;101373.34;5016670;28;20044;-79
2022/01/01 09:31:41;;;;;;;5.20;2.83;;;;;;;13.53;75.57;101378.66;5016701;28;20050;-80
2022/01/01 09:34:07;;;;;;;6.28;2.65;;;;;;;13.53;75.63;101373.34;5016667;28;20073;-80
2022/01/01 09:36:33;;;;;;;7.20;3.30;;;;;;;13.58;75.33;101386.59;5014869;28;20053;-80
2022/01/01 09:38:59;;;;;;;6.35;2.78;;;;;;;13.62;75.62;101375.06;5016566;28;20053;-80
2022/01/01 09:41:24;;;;;;;9.60;4.05;;;;;;;13.71;74.79;101379.47;5023451;28;20079;-79
2022/01/01 09:43:53;;;;;;;6.82;3.00;;;;;;;13.67;74.49;101386.53;5014948;28;20125;-80
2022/01/01 09:46:18;;;;;;;8.05;3.42;;;;;;;13.74;74.19;101392.72;5016073;28;20042;-80
2022/01/01 09:48:44;;;;;;;7.53;3.15;;;;;;;13.68;74.41;101387.44;5016235;28;20041;-79
2022/01/01 09:51:09;;;;;;;6.70;2.78;;;;;;;13.71;74.14;101404.22;5012496;28;20042;-80
2022/01/01 09:53:36;;;;;;;7.35;3.38;;;;;;;13.70;74.00;101399.81;5016687;28;20038;-80
2022/01/01 09:56:03;;;;;;;4.97;2.85;;;;;;;13.76;74.04;101402.44;5016099;28;20048;-80
2022/01/01 09:58:31;;;;;;;6.90;3.33;;;;;;;13.72;73.95;101400.66;5016000;28;20061;-80
2022/01/01 10:00:56;;;;;;;7.50;3.30;;;;;;;13.73;73.93;101404.22;5012053;28;20128;-80
2022/01/01 10:03:40;;;;;;;5.28;2.92;;;;;;;13.63;74.35;101399.84;5016166;28;20127;-80
2022/01/01 10:06:20;;;;;;;7.00;3.20;;;;;;;13.64;74.20;101401.59;5021180;28;20042;-80
2022/01/01 10:08:47;;;;;;;9.15;3.08;;;;;;;13.57;74.73;101396.34;5016050;28;20167;-81
2022/01/01 10:11:17;;;;;;;6.13;3.13;;;;;;;13.56;74.71;101405.16;5016015;28;20048;-80
2022/01/01 10:13:43;;;;;;;8.10;3.05;;;;;;;13.54;74.75;101403.41;5023103;28;20042;-80
2022/01/01 10:16:10;;;;;;;6.72;2.50;;;;;;;13.59;74.39;101394.53;5015826;28;20049;-80
2022/01/01 10:18:40;;;;;;;8.00;3.50;;;;;;;13.61;74.29;101410.47;5014952;28;20042;-80
2022/01/01 10:21:29;;;;;;;6.30;3.08;;;;;;;13.66;74.74;101394.53;5015451;28;20076;-80
2022/01/01 10:23:57;;;;;;;9.00;3.40;;;;;;;13.63;74.02;101405.16;5013982;28;20124;-80
2022/01/01 10:29:28;;;;;;;8.00;3.63;;;;;;;13.65;73.95;101419.28;5012175;28;20121;-80
2022/01/01 10:31:56;;;;;;;5.00;2.65;;;;;;;13.60;73.85;101411.38;5014595;28;20542;-79
2022/01/01 10:34:25;;;;;;;5.97;3.00;;;;;;;13.58;74.14;101408.69;5022312;28;20057;-81
2022/01/01 10:36:52;;;;;;;7.63;3.08;;;;;;;13.63;74.13;101414.00;5015576;28;20038;-80
2022/01/01 10:39:18;;;;;;;5.72;3.08;;;;;;;13.66;74.04;101413.09;5015220;28;20038;-81
2022/01/01 10:41:49;;;;;;;6.28;2.85;;;;;;;13.64;73.48;101413.09;5014163;28;20563;-80
2022/01/01 10:44:15;;;;;;;8.00;3.28;;;;;;;13.71;73.26;101416.59;5015092;28;20424;-80
2022/01/01 10:46:41;;;;;;;8.43;3.55;;;;;;;13.69;73.51;101418.38;5012825;28;20100;-80
2022/01/01 10:49:34;;;;;;;7.65;3.20;;;;;;;13.68;73.52;101414.84;5013902;28;20492;-80
2022/01/01 10:52:16;;;;;;;9.55;3.17;;;;;;;13.71;72.92;101429.88;5013002;28;20065;-80
2022/01/01 10:54:55;;;;;;;;;;;;;;;13.73;73.13;101421.03;5014116;28;20095;-80
2022/01/01 10:57:26;;;;;;;8.65;3.30;;;;;;;13.81;73.13;101427.16;5012342;28;19914;-80
2022/01/01 11:00:03;;;;;;;7.50;3.38;;;;;;;13.87;72.32;101420.94;5015413;28;20034;-79
2022/01/01 11:02:32;;;;;;;9.48;3.80;;;;;;;13.99;72.19;101420.88;5015314;28;20034;-81
2022/01/01 11:04:57;;;;;;;7.50;3.45;;;;;;;14.02;72.13;101431.47;5015885;28;20029;-80
2022/01/01 11:07:27;;;;;;;5.15;3.00;;;;;;;14.04;71.86;101431.44;5016040;28;20045;-80
2022/01/01 11:09:54;;;;;;;6.15;3.15;;;;;;;14.06;71.53;101423.47;5016087;28;20033;-80
2022/01/01 11:12:21;;;;;;;6.90;3.17;;;;;;;14.06;71.47;101426.13;5015771;28;20057;-80
2022/01/01 11:14:47;;;;;;;7.55;3.50;;;;;;;14.10;71.80;101428.78;5015038;28;20044;-80
2022/01/01 11:17:13;;;;;;;8.68;3.15;;;;;;;14.16;71.26;101427.84;5022520;28;20116;-80
2022/01/01 11:19:38;;;;;;;9.38;3.88;;;;;;;14.21;71.58;101416.28;5015301;28;20374;-81
2022/01/01 11:22:04;;;;;;;6.85;3.25;;;;;;;14.22;70.94;101425.13;5022870;28;20046;-80
2022/01/01 11:24:30;;;;;;;6.47;3.42;;;;;;;14.24;71.04;101426.88;5015131;28;20026;-80
2022/01/01 11:26:57;;;;;;;7.80;4.18;;;;;;;14.23;71.17;101425.13;5014293;28;20045;-80
2022/01/01 11:29:22;;;;;;;8.15;4.18;;;;;;;14.22;70.98;101433.09;5014454;28;20038;-80